Time;durP1;ratioP1;P1;durP2;ratioP2;P2;SDS_P1;SDS_P2;PMS_P1;PMS_P2;Temp;Humidity;BMP_temperature;BMP_pressure;BME280_temperature;BME280_humidity;BME280_pressure;Samples;Min_cycle;Max_cycle;Signal;HPM_P1;HPM_P2
2022/11/15 00:00:49;;;;;;;22.92;12.82;;;7.90;99.90;;;;;;5029640;28;20037;-66
2022/11/15 00:03:16;;;;;;;27.73;13.10;;;7.80;99.90;;;;;;5034129;28;20120;-66
2022/11/15 00:05:42;;;;;;;22.38;11.43;;;7.90;99.90;;;;;;5049821;28;20405;-66
2022/11/15 00:08:08;;;;;;;21.35;12.05;;;7.90;99.90;;;;;;5051043;28;20037;-66
2022/11/15 00:10:33;;;;;;;22.35;11.65;;;7.90;99.90;;;;;;5051173;28;20045;-66
2022/11/15 00:12:59;;;;;;;20.90;12.23;;;7.90;99.90;;;;;;5050842;28;20497;-66
2022/11/15 00:15:24;;;;;;;18.55;10.98;;;8.00;99.90;;;;;;5050885;28;20051;-66
2022/11/15 00:17:50;;;;;;;22.13;11.73;;;8.00;99.90;;;;;;5049566;28;20051;-66
2022/11/15 00:20:17;;;;;;;20.02;11.15;;;8.00;99.90;;;;;;5051012;28;20037;-66
2022/11/15 00:22:42;;;;;;;22.95;13.05;;;8.00;99.90;;;;;;5050785;28;20041;-66
2022/11/15 00:25:08;;;;;;;24.58;11.77;;;8.00;99.90;;;;;;5050528;28;20060;-66
2022/11/15 00:27:34;;;;;;;21.00;12.10;;;8.00;99.90;;;;;;5050866;28;20042;-66
2022/11/15 00:30:00;;;;;;;28.73;14.48;;;8.00;99.90;;;;;;5049325;28;20083;-66
2022/11/15 00:32:26;;;;;;;21.45;11.48;;;8.00;99.90;;;;;;5050641;28;20698;-66
2022/11/15 00:34:51;;;;;;;25.00;12.15;;;8.10;99.90;;;;;;5050554;28;20497;-66
2022/11/15 00:37:17;;;;;;;23.08;12.82;;;8.00;99.90;;;;;;5050717;28;20044;-66
2022/11/15 00:39:42;;;;;;;25.38;11.85;;;8.00;99.90;;;;;;5050730;28;20041;-66
2022/11/15 00:42:08;;;;;;;31.33;12.43;;;8.10;99.90;;;;;;5050068;28;20521;-66
2022/11/15 00:44:33;;;;;;;21.98;11.77;;;8.10;99.90;;;;;;5050254;28;20037;-66
2022/11/15 00:46:59;;;;;;;26.40;12.20;;;8.10;99.90;;;;;;5048687;28;20072;-66
2022/11/15 00:49:24;;;;;;;22.77;11.30;;;8.20;99.90;;;;;;5049283;28;20041;-66
2022/11/15 00:51:50;;;;;;;28.17;13.23;;;8.20;99.90;;;;;;5050476;28;20171;-66
2022/11/15 00:54:15;;;;;;;24.80;12.48;;;8.20;99.90;;;;;;5051119;28;20118;-66
2022/11/15 00:56:41;;;;;;;25.33;12.48;;;8.20;99.90;;;;;;5054438;28;20044;-66
2022/11/15 00:59:06;;;;;;;26.88;12.68;;;8.20;99.90;;;;;;5054390;28;20045;-66
2022/11/15 01:01:32;;;;;;;24.85;12.38;;;8.20;99.90;;;;;;5053999;28;20071;-66
2022/11/15 01:03:58;;;;;;;26.92;12.57;;;8.30;99.90;;;;;;5054171;28;20523;-66
2022/11/15 01:06:23;;;;;;;28.38;13.40;;;8.30;99.90;;;;;;5053953;28;20041;-66
2022/11/15 01:08:49;;;;;;;27.92;13.02;;;8.30;99.90;;;;;;5053225;28;20064;-66
2022/11/15 01:11:14;;;;;;;24.52;12.05;;;8.30;99.90;;;;;;5054118;28;20769;-66
2022/11/15 01:13:40;;;;;;;27.20;13.35;;;8.30;99.90;;;;;;5053829;28;20420;-66
2022/11/15 01:16:19;;;;;;;25.98;12.38;;;8.30;99.90;;;;;;5053739;28;20040;-66
2022/11/15 01:18:45;;;;;;;21.65;11.15;;;8.40;99.90;;;;;;5054204;28;20041;-66
2022/11/15 01:21:14;;;;;;;24.35;12.20;;;8.40;99.90;;;;;;5053744;28;20080;-66
2022/11/15 01:23:40;;;;;;;27.33;12.45;;;8.40;99.90;;;;;;5054044;28;20052;-66
2022/11/15 01:26:07;;;;;;;27.80;13.98;;;8.40;99.90;;;;;;5052652;28;20033;-66
2022/11/15 01:28:35;;;;;;;26.52;12.88;;;8.40;99.90;;;;;;5052727;28;20083;-66
2022/11/15 01:31:02;;;;;;;24.33;12.60;;;8.30;99.90;;;;;;5053824;28;20041;-66
2022/11/15 01:33:28;;;;;;;23.98;12.40;;;8.30;99.90;;;;;;5053869;28;20443;-66
2022/11/15 01:35:54;;;;;;;28.88;12.80;;;8.40;99.90;;;;;;5053647;28;20045;-66
2022/11/15 01:38:19;;;;;;;24.80;12.05;;;8.40;99.90;;;;;;5054082;28;20530;-66
2022/11/15 01:40:45;;;;;;;22.17;11.75;;;8.40;99.90;;;;;;5053293;28;20045;-66
2022/11/15 01:43:26;;;;;;;22.63;11.55;;;8.40;99.90;;;;;;5053580;28;20065;-66
2022/11/15 01:46:14;;;;;;;23.60;12.10;;;8.40;99.90;;;;;;5052941;28;20705;-66
2022/11/15 01:48:40;;;;;;;26.20;11.88;;;8.40;99.90;;;;;;5053548;28;20041;-66
2022/11/15 01:51:10;;;;;;;23.48;12.02;;;8.40;99.90;;;;;;5052991;28;20049;-66
2022/11/15 01:53:38;;;;;;;25.30;12.07;;;8.40;99.90;;;;;;5053661;28;20041;-66
2022/11/15 01:56:07;;;;;;;24.58;12.07;;;8.40;99.90;;;;;;5053320;28;20444;-66
2022/11/15 01:58:34;;;;;;;25.40;11.48;;;8.40;99.90;;;;;;5053409;28;20045;-66
2022/11/15 02:00:59;;;;;;;21.30;10.88;;;8.50;99.90;;;;;;5053359;28;20037;-66
2022/11/15 02:03:45;;;;;;;26.60;11.98;;;8.40;99.90;;;;;;5053239;28;20040;-66
2022/11/15 02:06:11;;;;;;;24.45;11.80;;;8.50;99.90;;;;;;5051938;28;20464;-66
2022/11/15 02:08:36;;;;;;;25.00;12.23;;;8.40;99.90;;;;;;5053373;28;20032;-66
2022/11/15 02:11:07;;;;;;;28.65;12.43;;;8.40;99.90;;;;;;5053210;28;20052;-66
2022/11/15 02:13:32;;;;;;;30.70;13.02;;;8.40;99.90;;;;;;5052746;28;20114;-66
2022/11/15 02:16:22;;;;;;;29.35;13.10;;;8.50;99.90;;;;;;5052729;28;20037;-66
2022/11/15 02:18:59;;;;;;;28.42;13.15;;;8.50;99.90;;;;;;5051217;28;20072;-66
2022/11/15 02:21:50;;;;;;;29.20;13.27;;;8.50;99.90;;;;;;5052742;28;20124;-66
2022/11/15 02:24:35;;;;;;;33.65;14.52;;;8.50;99.90;;;;;;5052731;28;20045;-66
2022/11/15 02:27:30;;;;;;;35.90;13.57;;;8.50;99.90;;;;;;5052715;28;20049;-66
2022/11/15 02:30:33;;;;;;;30.25;13.32;;;8.60;99.90;;;;;;5052564;28;20524;-66
2022/11/15 02:33:23;;;;;;;36.80;14.38;;;8.60;99.90;;;;;;5052787;28;20049;-66
2022/11/15 02:36:05;;;;;;;30.17;13.07;;;8.60;99.90;;;;;;5052284;28;20106;-66
2022/11/15 02:38:37;;;;;;;32.50;13.30;;;8.60;99.90;;;;;;5052878;28;20060;-66
2022/11/15 02:41:19;;;;;;;38.42;13.57;;;8.60;99.90;;;;;;5051228;28;20049;-66
2022/11/15 02:44:00;;;;;;;33.83;15.25;;;8.70;99.90;;;;;;5052184;28;20053;-66
2022/11/15 02:49:25;;;;;;;33.50;14.10;;;8.60;99.90;;;;;;5052334;28;20115;-66
2022/11/15 02:51:52;;;;;;;37.92;15.07;;;8.60;99.90;;;;;;5052382;28;20066;-66
2022/11/15 02:54:23;;;;;;;31.13;14.20;;;8.60;99.90;;;;;;5052211;28;20040;-66
2022/11/15 02:56:52;;;;;;;33.22;14.93;;;8.60;99.90;;;;;;5052295;28;20045;-66
2022/11/15 02:59:43;;;;;;;38.42;15.85;;;8.70;99.90;;;;;;5050663;28;20098;-66
2022/11/15 03:02:42;;;;;;;39.03;15.63;;;8.70;99.90;;;;;;5051770;28;20560;-66
2022/11/15 03:05:10;;;;;;;32.95;15.38;;;8.70;99.90;;;;;;5052077;28;20429;-66
2022/11/15 03:07:44;;;;;;;35.45;16.02;;;8.70;99.90;;;;;;5051891;28;20509;-66
2022/11/15 03:10:19;;;;;;;37.67;15.27;;;8.70;99.90;;;;;;5052271;28;20041;-66
2022/11/15 03:13:16;;;;;;;38.92;16.45;;;8.70;99.90;;;;;;5051683;28;20043;-66
2022/11/15 03:15:53;;;;;;;30.13;14.35;;;8.70;99.90;;;;;;5051755;28;20397;-66
2022/11/15 03:18:33;;;;;;;28.77;14.27;;;8.80;99.90;;;;;;5051676;28;20452;-66
2022/11/15 03:21:02;;;;;;;42.95;16.70;;;8.80;99.90;;;;;;5051527;28;20044;-66
2022/11/15 03:23:29;;;;;;;36.65;15.75;;;8.80;99.90;;;;;;5051419;28;20450;-66
2022/11/15 03:25:58;;;;;;;39.78;16.42;;;8.80;99.90;;;;;;5050502;28;20091;-66
2022/11/15 03:28:42;;;;;;;31.08;15.68;;;8.80;99.90;;;;;;5051666;28;20037;-66
2022/11/15 03:31:46;;;;;;;41.28;16.15;;;8.80;99.90;;;;;;5051593;28;20051;-66
2022/11/15 03:34:02;;;;;;;38.75;15.65;;;8.80;99.90;;;;;;5050815;28;20059;-66
2022/11/15 03:36:29;;;;;;;36.95;17.08;;;8.90;99.90;;;;;;5051546;28;20041;-66
2022/11/15 03:39:01;;;;;;;34.92;15.18;;;8.80;99.90;;;;;;5051604;28;20076;-66
2022/11/15 03:41:43;;;;;;;36.58;17.02;;;8.80;99.90;;;;;;5051148;28;20052;-66
2022/11/15 03:44:27;;;;;;;47.30;17.38;;;8.90;99.90;;;;;;5050808;28;20047;-66
2022/11/15 03:47:09;;;;;;;32.22;15.57;;;8.90;99.90;;;;;;5051376;28;20036;-66
2022/11/15 03:49:40;;;;;;;51.07;17.37;;;8.90;99.90;;;;;;5051470;28;20037;-66
2022/11/15 03:52:06;;;;;;;36.08;17.40;;;8.90;99.90;;;;;;5051204;28;20091;-66
2022/11/15 03:54:31;;;;;;;36.50;16.48;;;8.90;99.90;;;;;;5050571;28;20076;-66
2022/11/15 03:56:57;;;;;;;36.47;17.30;;;9.00;99.90;;;;;;5051367;28;20452;-66
2022/11/15 03:59:23;;;;;;;31.83;16.45;;;9.00;99.90;;;;;;5050896;28;20044;-66
2022/11/15 04:01:49;;;;;;;36.90;17.35;;;9.00;99.90;;;;;;5050980;28;20426;-66
2022/11/15 04:04:14;;;;;;;33.83;17.15;;;9.00;99.90;;;;;;5049424;28;20040;-66
2022/11/15 04:06:40;;;;;;;40.25;17.05;;;9.00;99.90;;;;;;5051131;28;20460;-66
2022/11/15 04:09:05;;;;;;;41.53;17.67;;;9.10;99.90;;;;;;5050939;28;20045;-66
2022/11/15 04:11:31;;;;;;;43.10;17.42;;;9.10;99.90;;;;;;5050837;28;20080;-66
2022/11/15 04:13:56;;;;;;;39.58;16.73;;;9.10;99.90;;;;;;5050956;28;20077;-66
2022/11/15 04:16:22;;;;;;;40.03;18.58;;;9.10;99.90;;;;;;5032859;28;20072;-66
2022/11/15 04:24:11;;;;;;;39.58;19.48;;;9.10;99.90;;;;;;5051112;28;20456;-66
2022/11/15 04:24:17;;;;;;;43.33;19.20;;;9.10;99.90;;;;;;5050702;28;20040;-66
2022/11/15 04:26:42;;;;;;;41.80;20.20;;;9.20;99.90;;;;;;5050995;28;20041;-66
2022/11/15 04:31:52;;;;;;;46.08;20.42;;;9.20;99.90;;;;;;5057244;28;20041;-66
2022/11/15 04:34:18;;;;;;;43.50;19.42;;;9.30;99.90;;;;;;5057280;28;20382;-66
2022/11/15 04:39:27;;;;;;;39.58;18.50;;;9.40;99.90;;;;;;5057526;28;20119;-66
2022/11/15 04:41:53;;;;;;;45.92;18.45;;;9.40;99.90;;;;;;5057326;28;20120;-66
2022/11/15 04:44:18;;;;;;;42.35;17.65;;;9.40;99.90;;;;;;5056941;28;20036;-66
2022/11/15 04:46:44;;;;;;;41.05;19.25;;;9.40;99.90;;;;;;5057136;28;20037;-66
2022/11/15 04:49:10;;;;;;;39.58;18.80;;;9.50;99.90;;;;;;5057385;28;20041;-66
2022/11/15 04:51:35;;;;;;;39.50;18.83;;;9.50;99.90;;;;;;5057379;28;20545;-66
2022/11/15 04:54:01;;;;;;;40.72;18.75;;;9.50;99.90;;;;;;5056894;28;20075;-66
2022/11/15 04:56:26;;;;;;;45.65;19.52;;;9.50;99.90;;;;;;5057230;28;20501;-66
2022/11/15 04:58:52;;;;;;;42.25;19.02;;;9.60;99.90;;;;;;5057072;28;20486;-66
2022/11/15 05:01:17;;;;;;;38.63;18.00;;;9.60;99.90;;;;;;5056708;28;20045;-66
2022/11/15 05:06:29;;;;;;;39.17;17.23;;;9.60;99.90;;;;;;5057443;28;20052;-66
2022/11/15 05:08:55;;;;;;;35.35;17.48;;;9.70;99.90;;;;;;5057213;28;20489;-66
2022/11/15 05:11:21;;;;;;;38.03;17.65;;;9.70;99.90;;;;;;5056907;28;20120;-66
2022/11/15 05:13:46;;;;;;;33.35;17.17;;;9.70;99.90;;;;;;5057028;28;20140;-66
2022/11/15 05:16:12;;;;;;;41.38;17.83;;;9.70;99.90;;;;;;5057162;28;20064;-66
2022/11/15 05:18:40;;;;;;;40.50;17.58;;;9.80;99.90;;;;;;5057284;28;20064;-67
2022/11/15 05:21:08;;;;;;;40.67;17.63;;;9.80;99.90;;;;;;5056885;28;20048;-66
2022/11/15 05:23:33;;;;;;;40.30;17.45;;;9.80;99.90;;;;;;5056932;28;20041;-66
2022/11/15 05:26:00;;;;;;;34.55;16.95;;;9.80;99.90;;;;;;5056579;28;20041;-66
2022/11/15 05:28:26;;;;;;;38.55;17.25;;;9.80;99.90;;;;;;5057098;28;20153;-66
2022/11/15 05:30:51;;;;;;;34.67;16.85;;;9.90;99.90;;;;;;5056947;28;20119;-66
2022/11/15 05:33:17;;;;;;;37.47;17.88;;;9.90;99.90;;;;;;5057025;28;20067;-66
2022/11/15 05:35:48;;;;;;;35.83;17.27;;;9.90;99.90;;;;;;5056633;28;20045;-66
2022/11/15 05:38:14;;;;;;;36.97;16.75;;;10.00;99.90;;;;;;5057035;28;20128;-66
2022/11/15 05:40:39;;;;;;;33.70;18.42;;;10.00;99.90;;;;;;5055682;28;20124;-66
2022/11/15 05:43:05;;;;;;;34.35;16.23;;;10.10;99.90;;;;;;5053631;28;20045;-66
2022/11/15 05:45:33;;;;;;;31.80;15.98;;;10.20;99.90;;;;;;5053453;28;20095;-66
2022/11/15 05:48:04;;;;;;;35.42;17.10;;;10.20;99.90;;;;;;5053688;28;20045;-66
2022/11/15 05:50:30;;;;;;;31.05;16.02;;;10.20;99.90;;;;;;5053831;28;20041;-66
2022/11/15 05:52:56;;;;;;;34.13;16.33;;;10.20;99.90;;;;;;5053417;28;20048;-66
2022/11/15 05:55:22;;;;;;;38.42;16.83;;;10.30;99.90;;;;;;5053310;28;20083;-66
2022/11/15 05:57:47;;;;;;;36.72;16.05;;;10.30;99.90;;;;;;5053381;28;20041;-66
2022/11/15 06:00:13;;;;;;;34.88;16.95;;;10.30;99.90;;;;;;5053365;28;20037;-66
2022/11/15 06:02:39;;;;;;;37.47;17.05;;;10.30;99.90;;;;;;5053171;28;20107;-67
2022/11/15 06:05:04;;;;;;;28.52;15.32;;;10.30;99.90;;;;;;5051809;28;20379;-66
2022/11/15 06:07:30;;;;;;;35.50;16.05;;;10.40;99.90;;;;;;5051857;28;20440;-66
2022/11/15 06:09:56;;;;;;;29.83;15.73;;;10.40;99.90;;;;;;5052987;28;20069;-66
2022/11/15 06:12:21;;;;;;;37.13;15.73;;;10.40;99.90;;;;;;5053260;28;20051;-66
2022/11/15 06:14:47;;;;;;;30.77;16.45;;;10.50;99.90;;;;;;5051280;28;20429;-66
2022/11/15 06:17:13;;;;;;;32.55;15.90;;;10.50;99.90;;;;;;5053300;28;20094;-66
2022/11/15 06:19:38;;;;;;;27.05;13.77;;;10.50;99.90;;;;;;5053135;28;20332;-66
2022/11/15 06:22:04;;;;;;;25.85;14.10;;;10.50;99.90;;;;;;5053057;28;20044;-66
2022/11/15 06:24:29;;;;;;;27.15;14.20;;;10.50;99.90;;;;;;5052725;28;20051;-66
2022/11/15 06:26:55;;;;;;;29.70;16.42;;;10.50;99.90;;;;;;5053011;28;20128;-66
2022/11/15 06:29:20;;;;;;;29.13;14.35;;;10.50;99.90;;;;;;5052952;28;20128;-65
2022/11/15 06:31:46;;;;;;;29.58;14.45;;;10.60;99.90;;;;;;5052852;28;20036;-66
2022/11/15 06:34:11;;;;;;;25.67;14.63;;;10.60;99.90;;;;;;5052727;28;20048;-66
2022/11/15 06:36:37;;;;;;;32.75;16.17;;;10.60;99.90;;;;;;5052616;28;20044;-65
2022/11/15 06:39:04;;;;;;;29.25;13.98;;;10.60;99.90;;;;;;5052576;28;20052;-66
2022/11/15 06:41:30;;;;;;;25.73;14.85;;;10.60;99.90;;;;;;5052166;28;20611;-66
2022/11/15 06:43:56;;;;;;;28.35;14.65;;;10.60;99.90;;;;;;5051725;28;20111;-66
2022/11/15 06:46:22;;;;;;;27.42;14.57;;;10.70;99.90;;;;;;5052624;28;20119;-68
2022/11/15 06:48:51;;;;;;;27.40;13.82;;;10.70;99.90;;;;;;5052519;28;20061;-69
2022/11/15 06:51:16;;;;;;;28.40;13.88;;;10.70;99.90;;;;;;5051075;28;20124;-66
2022/11/15 06:53:42;;;;;;;30.25;14.73;;;10.80;99.90;;;;;;5051573;28;20569;-66
2022/11/15 06:56:07;;;;;;;27.40;14.00;;;10.70;99.90;;;;;;5052497;28;20129;-66
2022/11/15 06:58:33;;;;;;;29.17;15.05;;;10.70;99.90;;;;;;5052162;28;20040;-66
2022/11/15 07:01:04;;;;;;;22.63;13.68;;;10.80;99.90;;;;;;5052207;28;20037;-66
2022/11/15 07:03:29;;;;;;;26.77;13.68;;;10.80;99.90;;;;;;5052365;28;20041;-66
2022/11/15 07:05:56;;;;;;;23.75;13.98;;;10.80;99.90;;;;;;5052152;28;20498;-66
2022/11/15 07:08:23;;;;;;;25.55;12.40;;;10.80;99.90;;;;;;5049642;28;20048;-67
2022/11/15 07:10:49;;;;;;;26.77;13.18;;;10.80;99.90;;;;;;5048944;28;20033;-66
2022/11/15 07:13:14;;;;;;;26.02;13.10;;;10.80;99.90;;;;;;5050713;28;20040;-66
2022/11/15 07:15:40;;;;;;;28.40;13.80;;;10.80;99.90;;;;;;5051525;28;20044;-66
2022/11/15 07:18:06;;;;;;;27.25;13.85;;;10.80;99.90;;;;;;5052079;28;20048;-66
2022/11/15 07:20:31;;;;;;;24.60;12.80;;;10.80;99.90;;;;;;5049979;28;20048;-66
2022/11/15 07:23:01;;;;;;;25.25;14.40;;;10.80;99.90;;;;;;5048387;28;20148;-67
2022/11/15 07:25:27;;;;;;;25.40;13.40;;;10.80;99.90;;;;;;5047590;28;20040;-66
2022/11/15 07:28:00;;;;;;;24.08;13.45;;;10.90;99.90;;;;;;5051518;28;20033;-67
2022/11/15 07:30:26;;;;;;;24.42;13.60;;;10.90;99.90;;;;;;5051173;28;20041;-66
2022/11/15 07:32:56;;;;;;;23.25;13.25;;;10.90;99.90;;;;;;5051479;28;20041;-66
2022/11/15 07:35:22;;;;;;;23.33;13.05;;;10.90;99.90;;;;;;5048965;28;20074;-66
2022/11/15 07:37:59;;;;;;;24.08;13.82;;;10.90;99.90;;;;;;5050984;28;20416;-67
2022/11/15 07:40:26;;;;;;;26.83;13.23;;;11.00;99.90;;;;;;5051174;28;20379;-66
2022/11/15 07:42:52;;;;;;;25.25;13.73;;;11.00;99.90;;;;;;5051092;28;20558;-66
2022/11/15 07:45:18;;;;;;;27.23;15.10;;;11.00;99.90;;;;;;5049996;28;20036;-66
2022/11/15 07:47:48;;;;;;;24.83;13.85;;;11.10;99.90;;;;;;5050485;28;20455;-66
2022/11/15 07:50:14;;;;;;;25.75;14.43;;;11.10;99.90;;;;;;5050670;28;20045;-66
2022/11/15 07:52:39;;;;;;;27.42;13.93;;;11.10;99.90;;;;;;5051248;28;20059;-66
2022/11/15 07:55:05;;;;;;;25.50;13.77;;;11.10;99.90;;;;;;5051117;28;20044;-66
2022/11/15 07:57:31;;;;;;;26.13;14.02;;;11.10;99.90;;;;;;5051218;28;20094;-66
2022/11/15 07:59:56;;;;;;;28.33;13.88;;;11.10;99.90;;;;;;5051022;28;20070;-66
2022/11/15 08:02:22;;;;;;;28.63;15.40;;;11.10;99.90;;;;;;5050772;28;20049;-66
2022/11/15 08:04:47;;;;;;;25.00;14.02;;;11.20;99.90;;;;;;5050151;28;20428;-67
2022/11/15 08:07:13;;;;;;;27.15;14.43;;;11.20;99.90;;;;;;5051306;28;20386;-67
2022/11/15 08:09:38;;;;;;;29.92;14.15;;;11.20;99.90;;;;;;5051219;28;20048;-68
2022/11/15 08:12:04;;;;;;;25.63;13.90;;;11.20;99.90;;;;;;5050813;28;20060;-66
2022/11/15 08:14:30;;;;;;;27.27;14.98;;;11.20;99.90;;;;;;5049228;28;20489;-66
2022/11/15 08:16:55;;;;;;;29.95;14.20;;;11.20;99.90;;;;;;5050326;28;20049;-66
2022/11/15 08:19:21;;;;;;;26.90;15.05;;;11.20;99.90;;;;;;5050013;28;20052;-69
2022/11/15 08:21:47;;;;;;;29.52;14.90;;;11.30;99.90;;;;;;5049460;28;20045;-66
2022/11/15 08:24:12;;;;;;;39.78;16.05;;;11.30;99.90;;;;;;5050744;28;20501;-66
2022/11/15 08:26:39;;;;;;;40.58;16.38;;;11.30;99.90;;;;;;5051009;28;20429;-66
2022/11/15 08:29:05;;;;;;;35.53;16.17;;;11.30;99.90;;;;;;5051096;28;20037;-66
2022/11/15 08:31:30;;;;;;;27.60;16.05;;;11.30;99.90;;;;;;5032742;28;20048;-66
2022/11/15 08:33:56;;;;;;;25.58;14.70;;;11.30;99.90;;;;;;5050725;28;20417;-66
2022/11/15 08:36:21;;;;;;;26.17;14.98;;;11.30;99.90;;;;;;5050865;28;20532;-66
2022/11/15 08:38:47;;;;;;;22.80;14.75;;;11.30;99.90;;;;;;5050835;28;20041;-66
2022/11/15 08:41:26;;;;;;;32.58;14.88;;;11.30;99.90;;;;;;5049370;28;20124;-66
2022/11/15 08:43:51;;;;;;;38.42;17.35;;;11.30;99.90;;;;;;5050465;28;20063;-66
2022/11/15 08:46:18;;;;;;;27.63;14.95;;;11.30;99.90;;;;;;5050710;28;20533;-66
2022/11/15 08:48:43;;;;;;;31.27;14.45;;;11.30;99.90;;;;;;5050798;28;20094;-66
2022/11/15 08:51:09;;;;;;;26.65;14.93;;;11.40;99.90;;;;;;5050660;28;20044;-66
2022/11/15 08:53:34;;;;;;;21.92;12.75;;;11.40;99.90;;;;;;5050782;28;20048;-66
2022/11/15 08:56:00;;;;;;;25.63;13.43;;;11.40;99.90;;;;;;5050294;28;20047;-66
2022/11/15 08:58:26;;;;;;;23.52;13.90;;;11.40;99.90;;;;;;5050398;28;20163;-66
2022/11/15 09:00:52;;;;;;;24.20;13.00;;;11.40;99.90;;;;;;5050516;28;20509;-66
2022/11/15 09:03:17;;;;;;;21.98;13.38;;;11.40;99.90;;;;;;5050416;28;20378;-66
2022/11/15 09:05:43;;;;;;;20.13;12.35;;;11.40;99.90;;;;;;5050379;28;20413;-65
2022/11/15 09:08:08;;;;;;;21.20;12.25;;;11.50;99.90;;;;;;5050365;28;20044;-66
2022/11/15 09:10:34;;;;;;;22.27;12.85;;;11.50;99.90;;;;;;5050584;28;20041;-66
2022/11/15 09:12:59;;;;;;;17.85;11.93;;;11.50;99.90;;;;;;5050264;28;20048;-66
2022/11/15 09:15:25;;;;;;;17.83;11.52;;;11.50;99.90;;;;;;5051105;28;20037;-66
2022/11/15 09:17:50;;;;;;;17.58;11.95;;;11.50;99.90;;;;;;5054395;28;20029;-66
2022/11/15 09:20:16;;;;;;;18.90;11.13;;;11.50;99.90;;;;;;5054314;28;20079;-66
2022/11/15 09:22:41;;;;;;;15.27;10.23;;;11.50;99.90;;;;;;5054033;28;20047;-66
2022/11/15 09:25:07;;;;;;;18.90;11.40;;;11.60;99.90;;;;;;5053728;28;20043;-67
2022/11/15 09:27:33;;;;;;;15.43;10.68;;;11.60;99.90;;;;;;5054259;28;20033;-66
2022/11/15 09:29:58;;;;;;;19.65;11.68;;;11.60;99.90;;;;;;5053805;28;20045;-66
2022/11/15 09:32:30;;;;;;;18.08;11.50;;;11.60;99.90;;;;;;5054383;28;20490;-67
2022/11/15 09:34:55;;;;;;;16.80;10.98;;;11.60;99.90;;;;;;5035752;28;20041;-66
2022/11/15 09:37:21;;;;;;;18.33;11.07;;;11.60;99.90;;;;;;5054141;28;20051;-66
2022/11/15 09:39:47;;;;;;;21.85;12.23;;;11.60;99.90;;;;;;5054195;28;20374;-66
2022/11/15 09:42:38;;;;;;;21.50;13.32;;;11.60;99.90;;;;;;5053227;28;20553;-66
2022/11/15 09:45:11;;;;;;;20.02;13.43;;;11.60;99.90;;;;;;5053659;28;20045;-66
2022/11/15 09:48:03;;;;;;;24.77;14.32;;;11.60;99.90;;;;;;5053859;28;20041;-66
2022/11/15 09:50:32;;;;;;;24.63;14.80;;;11.70;99.90;;;;;;5053598;28;20528;-66
2022/11/15 09:52:58;;;;;;;30.27;15.40;;;11.60;99.90;;;;;;5053345;28;20047;-66
2022/11/15 09:55:37;;;;;;;25.73;16.08;;;11.60;99.90;;;;;;5053152;28;20128;-66
2022/11/15 09:58:24;;;;;;;27.75;15.55;;;11.60;99.90;;;;;;5053491;28;20108;-67
2022/11/15 10:00:53;;;;;;;27.38;15.73;;;11.60;99.90;;;;;;5053535;28;20048;-67
2022/11/15 10:03:33;;;;;;;27.30;15.02;;;11.60;99.90;;;;;;5047653;28;20616;-69
2022/11/15 10:06:03;;;;;;;26.08;16.35;;;11.60;99.90;;;;;;5045733;28;20409;-69
2022/11/15 10:08:51;;;;;;;31.42;16.27;;;11.60;99.90;;;;;;5042087;28;20037;-69
2022/11/15 10:11:26;;;;;;;27.15;15.10;;;11.50;99.90;;;;;;5035673;28;20056;-69
2022/11/15 10:13:56;;;;;;;27.52;15.68;;;11.60;99.90;;;;;;5051749;28;20396;-69
2022/11/15 10:16:45;;;;;;;28.15;15.23;;;11.60;99.90;;;;;;5057263;28;20072;-69
2022/11/15 10:19:23;;;;;;;22.65;14.38;;;11.50;99.90;;;;;;5070704;28;20044;-69
2022/11/15 10:22:12;;;;;;;26.58;15.32;;;11.60;99.90;;;;;;5070926;28;20041;-69
2022/11/15 10:24:42;;;;;;;25.20;15.30;;;11.60;99.90;;;;;;5072277;28;20068;-68
2022/11/15 10:27:13;;;;;;;24.40;14.77;;;11.60;99.90;;;;;;5071290;28;20541;-68
2022/11/15 10:29:44;;;;;;;27.25;16.48;;;11.70;99.90;;;;;;5070992;28;20044;-68
2022/11/15 10:32:14;;;;;;;26.98;14.95;;;11.70;99.90;;;;;;5071960;28;20585;-68
2022/11/15 10:34:40;;;;;;;23.92;14.80;;;11.70;99.90;;;;;;5071882;28;20040;-68
2022/11/15 10:37:06;;;;;;;20.77;12.85;;;11.70;99.90;;;;;;5070653;28;20166;-69
2022/11/15 10:39:33;;;;;;;23.70;13.73;;;11.70;99.90;;;;;;5054513;28;20509;-69
2022/11/15 10:42:24;;;;;;;18.20;11.85;;;11.80;99.90;;;;;;5052150;28;20052;-69
2022/11/15 10:44:50;;;;;;;22.48;12.88;;;11.80;99.90;;;;;;5052169;28;20509;-69
2022/11/15 10:47:30;;;;;;;20.75;11.48;;;11.80;99.90;;;;;;5052570;28;20052;-69
2022/11/15 10:50:04;;;;;;;18.67;11.02;;;11.80;99.90;;;;;;5034676;28;20116;-69
2022/11/15 10:52:32;;;;;;;17.75;10.50;;;11.80;99.90;;;;;;5052458;28;20049;-68
2022/11/15 10:55:16;;;;;;;17.20;10.13;;;11.80;99.90;;;;;;5051931;28;20532;-68
2022/11/15 10:57:53;;;;;;;16.20;10.07;;;11.90;99.90;;;;;;5051700;28;20052;-69
2022/11/15 11:00:19;;;;;;;14.63;9.07;;;11.90;99.90;;;;;;5051071;28;20106;-69
2022/11/15 11:02:58;;;;;;;16.00;8.85;;;11.90;99.90;;;;;;5051894;28;20113;-68
2022/11/15 11:05:36;;;;;;;15.10;8.63;;;12.00;99.90;;;;;;5050416;28;20041;-68
2022/11/15 11:08:24;;;;;;;12.85;8.07;;;12.00;99.90;;;;;;5052180;28;20037;-69
2022/11/15 11:10:58;;;;;;;13.95;7.82;;;12.00;99.90;;;;;;5050374;28;20059;-68
2022/11/15 11:13:27;;;;;;;14.98;7.93;;;12.00;99.90;;;;;;5050651;28;20029;-68
2022/11/15 11:16:16;;;;;;;13.90;8.32;;;12.00;99.90;;;;;;5050613;28;20427;-68
2022/11/15 11:18:47;;;;;;;10.45;7.20;;;12.00;99.90;;;;;;5051948;28;20037;-68
2022/11/15 11:21:37;;;;;;;12.68;7.40;;;12.00;99.90;;;;;;5051810;28;20052;-68
2022/11/15 11:24:28;;;;;;;8.80;5.95;;;12.00;99.90;;;;;;5050124;28;20497;-68
2022/11/15 11:27:36;;;;;;;7.88;5.50;;;12.10;99.90;;;;;;5050296;28;20116;-68
2022/11/15 11:30:23;;;;;;;10.48;6.22;;;12.10;99.90;;;;;;5051518;28;20072;-68
2022/11/15 11:32:57;;;;;;;8.23;5.35;;;12.00;99.90;;;;;;5050228;28;20049;-68
2022/11/15 11:35:31;;;;;;;7.82;5.57;;;12.00;99.90;;;;;;5051392;28;20041;-68
2022/11/15 11:38:05;;;;;;;10.50;5.38;;;12.00;99.90;;;;;;5051224;28;20072;-68
2022/11/15 11:40:45;;;;;;;8.23;5.07;;;12.00;99.90;;;;;;5051534;28;20095;-68
2022/11/15 11:43:41;;;;;;;8.45;4.80;;;12.00;99.90;;;;;;5051129;28;20712;-68
2022/11/15 11:46:12;;;;;;;10.73;4.90;;;12.00;99.90;;;;;;5051474;28;20076;-68
2022/11/15 11:48:48;;;;;;;8.00;5.13;;;12.00;99.90;;;;;;5051331;28;20067;-69
2022/11/15 11:51:37;;;;;;;15.40;6.22;;;12.00;99.90;;;;;;5049818;28;20513;-69
2022/11/15 11:54:15;;;;;;;8.20;5.40;;;12.00;99.90;;;;;;5050905;28;20047;-68
2022/11/15 11:56:44;;;;;;;8.15;4.93;;;12.00;99.90;;;;;;5051177;28;20128;-68
2022/11/15 11:59:17;;;;;;;10.15;4.65;;;11.90;99.90;;;;;;5049780;28;20072;-68
2022/11/15 12:01:44;;;;;;;6.72;4.40;;;12.00;99.90;;;;;;5051150;28;20037;-68
2022/11/15 12:04:20;;;;;;;6.90;4.22;;;12.00;99.90;;;;;;5050794;28;20033;-68
2022/11/15 12:06:56;;;;;;;6.70;4.65;;;12.00;99.90;;;;;;5050890;28;20116;-68
2022/11/15 12:09:29;;;;;;;6.53;3.35;;;12.10;99.90;;;;;;5048718;28;20087;-69
2022/11/15 12:12:12;;;;;;;7.38;3.70;;;12.10;99.90;;;;;;5049536;28;20076;-68
2022/11/15 12:15:00;;;;;;;5.20;3.25;;;12.10;99.90;;;;;;5050094;28;20036;-68
2022/11/15 12:17:31;;;;;;;5.13;3.60;;;12.10;99.90;;;;;;5048478;28;20044;-68
2022/11/15 12:20:00;;;;;;;5.38;3.55;;;12.10;99.90;;;;;;5050279;28;20052;-68
2022/11/15 12:22:48;;;;;;;4.65;3.25;;;12.20;99.90;;;;;;5047394;28;20052;-68
2022/11/15 12:25:20;;;;;;;11.73;3.53;;;12.20;99.90;;;;;;5047843;28;20150;-68
2022/11/15 12:27:59;;;;;;;5.50;3.35;;;12.20;99.90;;;;;;5047735;28;20029;-67
2022/11/15 12:30:28;;;;;;;7.95;3.72;;;12.30;99.90;;;;;;5047491;28;20037;-68
2022/11/15 12:33:01;;;;;;;7.70;3.28;;;12.30;99.90;;;;;;5050053;28;20040;-68
2022/11/15 12:35:37;;;;;;;5.32;3.15;;;12.40;99.90;;;;;;5048010;28;20045;-68
2022/11/15 12:38:03;;;;;;;5.28;2.90;;;12.40;99.90;;;;;;5050489;28;20045;-68
2022/11/15 12:40:34;;;;;;;5.47;2.90;;;12.50;99.90;;;;;;5050485;28;20049;-68
2022/11/15 12:43:28;;;;;;;5.50;3.42;;;12.50;99.90;;;;;;5048881;28;20045;-69
2022/11/15 12:45:53;;;;;;;4.63;3.20;;;12.50;99.90;;;;;;5050154;28;20052;-66
2022/11/15 12:48:19;;;;;;;4.28;3.28;;;12.50;99.90;;;;;;5050732;28;20041;-66
2022/11/15 12:50:50;;;;;;;3.28;2.70;;;12.60;99.90;;;;;;5052233;28;20045;-66
2022/11/15 12:53:28;;;;;;;7.20;3.33;;;12.60;99.90;;;;;;5054637;28;20044;-67
2022/11/15 12:56:11;;;;;;;6.63;2.78;;;12.60;99.90;;;;;;5054585;28;20083;-66
2022/11/15 12:58:56;;;;;;;3.60;2.53;;;12.70;99.90;;;;;;5052715;28;20488;-66
2022/11/15 13:01:30;;;;;;;4.40;2.50;;;12.80;99.90;;;;;;5053412;28;20060;-67
2022/11/15 13:04:27;;;;;;;4.22;2.30;;;12.70;99.90;;;;;;5054239;28;20052;-67